Tongo Airport

Jump to: basic info | weather | comments

Related pages: nearby airports | nearby navaids | notams | map

Basic information (top)

Codes: GFTO
Location: lon 8.217000, lat -11.067000, elev 750 ft / 229 m msl
Status: small_airport

Weather (top)

Current conditions for Roberts International Airport 126nm (234km) SSE (rec'd 2014/10/21 14:30Z):

GLRB 211430Z 10004KT 9999 BKN014 FEW024 CB 27/24 Q1012 RMK CB-S

Airport forecast for Roberts International Airport 126nm (234km) SSE (rec'd 2014/10/21 12:00Z):

TAF GLRB 211000Z 2112/2218 20010KT 7000 RA SCT005 BKN015 FEW025CB FM 211500 24008KT 9999 BKN018 
      TEMPO 2121/2203 18008KT 9999

Latest comments (top)

No comments yet for Tongo Airport

More... (top)

See also NOTAMs and nearby airports and navaids, or visit the Tongo Airport page at the main OurAirports website..